sensor_id;sensor_type;location;lat;lon;timestamp;P1;durP1;ratioP1;P2;durP2;ratioP2
16270;SDS011;8243;49.048;8.396;2023-02-11T00:01:23;25.77;;;17.90;;
16270;SDS011;8243;49.048;8.396;2023-02-11T00:03:51;27.03;;;17.17;;
16270;SDS011;8243;49.048;8.396;2023-02-11T00:06:17;28.97;;;19.07;;
16270;SDS011;8243;49.048;8.396;2023-02-11T00:08:43;26.77;;;18.47;;
16270;SDS011;8243;49.048;8.396;2023-02-11T00:11:11;27.03;;;18.90;;
16270;SDS011;8243;49.048;8.396;2023-02-11T00:13:41;26.47;;;18.30;;
16270;SDS011;8243;49.048;8.396;2023-02-11T00:16:12;25.93;;;18.47;;
16270;SDS011;8243;49.048;8.396;2023-02-11T00:18:40;26.90;;;18.47;;
16270;SDS011;8243;49.048;8.396;2023-02-11T00:21:06;27.20;;;18.70;;
16270;SDS011;8243;49.048;8.396;2023-02-11T00:23:43;29.23;;;18.50;;
16270;SDS011;8243;49.048;8.396;2023-02-11T00:26:13;26.53;;;18.47;;
16270;SDS011;8243;49.048;8.396;2023-02-11T00:28:40;25.23;;;16.87;;
16270;SDS011;8243;49.048;8.396;2023-02-11T00:31:06;27.23;;;18.30;;
16270;SDS011;8243;49.048;8.396;2023-02-11T00:33:31;28.33;;;18.53;;
16270;SDS011;8243;49.048;8.396;2023-02-11T00:35:57;31.37;;;19.50;;
16270;SDS011;8243;49.048;8.396;2023-02-11T00:38:22;27.80;;;18.23;;
16270;SDS011;8243;49.048;8.396;2023-02-11T00:40:48;28.27;;;19.00;;
16270;SDS011;8243;49.048;8.396;2023-02-11T00:43:13;28.90;;;19.47;;
16270;SDS011;8243;49.048;8.396;2023-02-11T00:45:39;27.43;;;18.90;;
16270;SDS011;8243;49.048;8.396;2023-02-11T00:48:04;30.90;;;19.37;;
16270;SDS011;8243;49.048;8.396;2023-02-11T00:50:30;27.33;;;18.97;;
16270;SDS011;8243;49.048;8.396;2023-02-11T00:52:56;30.90;;;20.17;;
16270;SDS011;8243;49.048;8.396;2023-02-11T00:55:21;26.57;;;19.43;;
16270;SDS011;8243;49.048;8.396;2023-02-11T00:57:47;29.40;;;20.03;;
16270;SDS011;8243;49.048;8.396;2023-02-11T01:00:12;27.53;;;19.33;;
16270;SDS011;8243;49.048;8.396;2023-02-11T01:02:39;30.90;;;21.03;;
16270;SDS011;8243;49.048;8.396;2023-02-11T01:05:04;28.37;;;19.73;;
16270;SDS011;8243;49.048;8.396;2023-02-11T01:07:30;30.57;;;19.77;;
16270;SDS011;8243;49.048;8.396;2023-02-11T01:09:56;30.57;;;21.73;;
16270;SDS011;8243;49.048;8.396;2023-02-11T01:12:22;29.83;;;20.03;;
16270;SDS011;8243;49.048;8.396;2023-02-11T01:14:47;28.93;;;19.67;;
16270;SDS011;8243;49.048;8.396;2023-02-11T01:17:13;32.37;;;22.10;;
16270;SDS011;8243;49.048;8.396;2023-02-11T01:19:38;29.17;;;19.80;;
16270;SDS011;8243;49.048;8.396;2023-02-11T01:22:04;29.90;;;20.87;;
16270;SDS011;8243;49.048;8.396;2023-02-11T01:24:30;29.10;;;20.47;;
16270;SDS011;8243;49.048;8.396;2023-02-11T01:26:56;29.33;;;20.20;;
16270;SDS011;8243;49.048;8.396;2023-02-11T01:29:21;28.07;;;20.03;;
16270;SDS011;8243;49.048;8.396;2023-02-11T01:31:47;29.37;;;19.60;;
16270;SDS011;8243;49.048;8.396;2023-02-11T01:34:13;28.60;;;19.17;;
16270;SDS011;8243;49.048;8.396;2023-02-11T01:36:39;30.03;;;19.93;;
16270;SDS011;8243;49.048;8.396;2023-02-11T01:39:05;29.27;;;19.77;;
16270;SDS011;8243;49.048;8.396;2023-02-11T01:41:32;27.83;;;19.47;;
16270;SDS011;8243;49.048;8.396;2023-02-11T01:44:20;27.20;;;18.40;;
16270;SDS011;8243;49.048;8.396;2023-02-11T01:46:51;28.53;;;19.83;;
16270;SDS011;8243;49.048;8.396;2023-02-11T01:49:19;26.70;;;19.37;;
16270;SDS011;8243;49.048;8.396;2023-02-11T01:51:54;29.73;;;19.80;;
16270;SDS011;8243;49.048;8.396;2023-02-11T01:54:27;27.67;;;18.97;;
16270;SDS011;8243;49.048;8.396;2023-02-11T01:57:15;27.57;;;19.73;;
16270;SDS011;8243;49.048;8.396;2023-02-11T02:00:00;27.37;;;18.73;;
16270;SDS011;8243;49.048;8.396;2023-02-11T02:05:09;27.47;;;18.70;;
16270;SDS011;8243;49.048;8.396;2023-02-11T02:07:41;28.63;;;19.80;;
16270;SDS011;8243;49.048;8.396;2023-02-11T02:10:15;28.33;;;19.10;;
16270;SDS011;8243;49.048;8.396;2023-02-11T02:12:44;26.70;;;19.73;;
16270;SDS011;8243;49.048;8.396;2023-02-11T02:15:17;29.00;;;19.47;;
16270;SDS011;8243;49.048;8.396;2023-02-11T02:32:19;28.63;;;20.03;;
16270;SDS011;8243;49.048;8.396;2023-02-11T02:40:47;28.13;;;19.03;;
16270;SDS011;8243;49.048;8.396;2023-02-11T02:43:19;25.73;;;18.73;;
16270;SDS011;8243;49.048;8.396;2023-02-11T02:45:46;27.20;;;18.77;;
16270;SDS011;8243;49.048;8.396;2023-02-11T02:48:22;28.63;;;20.20;;
16270;SDS011;8243;49.048;8.396;2023-02-11T02:50:49;27.63;;;19.57;;
16270;SDS011;8243;49.048;8.396;2023-02-11T02:54:02;26.67;;;18.90;;
16270;SDS011;8243;49.048;8.396;2023-02-11T02:56:38;26.83;;;18.77;;
16270;SDS011;8243;49.048;8.396;2023-02-11T02:59:29;26.57;;;18.10;;
16270;SDS011;8243;49.048;8.396;2023-02-11T03:02:19;27.10;;;18.77;;
16270;SDS011;8243;49.048;8.396;2023-02-11T03:07:39;25.57;;;18.17;;
16270;SDS011;8243;49.048;8.396;2023-02-11T03:10:14;27.43;;;19.23;;
16270;SDS011;8243;49.048;8.396;2023-02-11T03:12:44;27.83;;;18.97;;
16270;SDS011;8243;49.048;8.396;2023-02-11T03:15:12;24.43;;;18.63;;
16270;SDS011;8243;49.048;8.396;2023-02-11T03:17:40;27.53;;;20.07;;
16270;SDS011;8243;49.048;8.396;2023-02-11T03:20:09;24.53;;;17.03;;
16270;SDS011;8243;49.048;8.396;2023-02-11T03:22:41;26.30;;;18.67;;
16270;SDS011;8243;49.048;8.396;2023-02-11T03:25:29;25.33;;;17.47;;
16270;SDS011;8243;49.048;8.396;2023-02-11T03:28:09;27.33;;;18.00;;
16270;SDS011;8243;49.048;8.396;2023-02-11T03:30:50;27.70;;;18.07;;
16270;SDS011;8243;49.048;8.396;2023-02-11T03:33:28;26.23;;;18.10;;
16270;SDS011;8243;49.048;8.396;2023-02-11T03:36:01;26.27;;;18.60;;
16270;SDS011;8243;49.048;8.396;2023-02-11T03:38:32;23.90;;;17.60;;
16270;SDS011;8243;49.048;8.396;2023-02-11T03:41:02;26.00;;;18.07;;
16270;SDS011;8243;49.048;8.396;2023-02-11T03:43:34;26.97;;;19.20;;
16270;SDS011;8243;49.048;8.396;2023-02-11T03:46:04;26.60;;;18.77;;
16270;SDS011;8243;49.048;8.396;2023-02-11T03:48:32;28.73;;;18.93;;
16270;SDS011;8243;49.048;8.396;2023-02-11T03:51:03;27.00;;;18.37;;
16270;SDS011;8243;49.048;8.396;2023-02-11T03:53:31;24.93;;;17.77;;
16270;SDS011;8243;49.048;8.396;2023-02-11T03:55:57;27.70;;;19.43;;
16270;SDS011;8243;49.048;8.396;2023-02-11T03:58:26;26.53;;;18.50;;
16270;SDS011;8243;49.048;8.396;2023-02-11T04:00:52;27.00;;;18.00;;
16270;SDS011;8243;49.048;8.396;2023-02-11T04:03:17;25.00;;;18.23;;
16270;SDS011;8243;49.048;8.396;2023-02-11T04:05:43;26.57;;;18.53;;
16270;SDS011;8243;49.048;8.396;2023-02-11T04:08:09;23.20;;;18.70;;
16270;SDS011;8243;49.048;8.396;2023-02-11T04:10:34;26.33;;;18.07;;
16270;SDS011;8243;49.048;8.396;2023-02-11T04:13:00;24.33;;;17.77;;
16270;SDS011;8243;49.048;8.396;2023-02-11T04:15:25;23.03;;;16.70;;
16270;SDS011;8243;49.048;8.396;2023-02-11T04:17:51;22.67;;;16.50;;
16270;SDS011;8243;49.048;8.396;2023-02-11T04:20:16;23.93;;;16.30;;
16270;SDS011;8243;49.048;8.396;2023-02-11T04:22:42;24.47;;;16.77;;
16270;SDS011;8243;49.048;8.396;2023-02-11T04:25:08;22.97;;;17.03;;
16270;SDS011;8243;49.048;8.396;2023-02-11T04:27:34;23.37;;;16.33;;
16270;SDS011;8243;49.048;8.396;2023-02-11T04:30:00;24.73;;;17.57;;
16270;SDS011;8243;49.048;8.396;2023-02-11T04:32:26;25.67;;;17.13;;
16270;SDS011;8243;49.048;8.396;2023-02-11T04:34:52;23.63;;;17.23;;
16270;SDS011;8243;49.048;8.396;2023-02-11T04:37:18;25.17;;;18.30;;
16270;SDS011;8243;49.048;8.396;2023-02-11T04:39:44;25.47;;;18.17;;
16270;SDS011;8243;49.048;8.396;2023-02-11T04:42:09;25.33;;;18.50;;
16270;SDS011;8243;49.048;8.396;2023-02-11T04:44:35;24.27;;;18.10;;
16270;SDS011;8243;49.048;8.396;2023-02-11T04:47:00;24.90;;;17.20;;
16270;SDS011;8243;49.048;8.396;2023-02-11T04:49:26;23.67;;;17.77;;
16270;SDS011;8243;49.048;8.396;2023-02-11T04:51:51;25.67;;;18.13;;
16270;SDS011;8243;49.048;8.396;2023-02-11T04:54:17;24.60;;;17.27;;
16270;SDS011;8243;49.048;8.396;2023-02-11T04:56:43;23.93;;;17.33;;
16270;SDS011;8243;49.048;8.396;2023-02-11T04:59:09;24.33;;;17.90;;
16270;SDS011;8243;49.048;8.396;2023-02-11T05:01:35;25.73;;;16.93;;
16270;SDS011;8243;49.048;8.396;2023-02-11T05:04:01;25.33;;;17.87;;
16270;SDS011;8243;49.048;8.396;2023-02-11T05:06:26;26.13;;;17.93;;
16270;SDS011;8243;49.048;8.396;2023-02-11T05:08:52;23.80;;;18.43;;
16270;SDS011;8243;49.048;8.396;2023-02-11T05:11:19;29.57;;;17.87;;
16270;SDS011;8243;49.048;8.396;2023-02-11T05:13:47;32.87;;;17.97;;
16270;SDS011;8243;49.048;8.396;2023-02-11T05:16:13;23.90;;;16.33;;
16270;SDS011;8243;49.048;8.396;2023-02-11T05:18:39;24.90;;;17.07;;
16270;SDS011;8243;49.048;8.396;2023-02-11T05:21:06;26.20;;;18.37;;
16270;SDS011;8243;49.048;8.396;2023-02-11T05:23:40;25.93;;;17.57;;
16270;SDS011;8243;49.048;8.396;2023-02-11T05:26:06;23.30;;;16.93;;
16270;SDS011;8243;49.048;8.396;2023-02-11T05:28:32;24.63;;;16.73;;
16270;SDS011;8243;49.048;8.396;2023-02-11T05:30:58;21.50;;;16.13;;
16270;SDS011;8243;49.048;8.396;2023-02-11T05:33:23;23.27;;;17.53;;
16270;SDS011;8243;49.048;8.396;2023-02-11T05:35:49;26.00;;;17.60;;
16270;SDS011;8243;49.048;8.396;2023-02-11T05:38:15;23.13;;;16.70;;
16270;SDS011;8243;49.048;8.396;2023-02-11T05:40:40;22.87;;;16.40;;
16270;SDS011;8243;49.048;8.396;2023-02-11T05:43:06;24.63;;;17.23;;
16270;SDS011;8243;49.048;8.396;2023-02-11T05:45:32;23.90;;;17.50;;
16270;SDS011;8243;49.048;8.396;2023-02-11T05:47:58;23.90;;;16.90;;
16270;SDS011;8243;49.048;8.396;2023-02-11T05:50:23;25.37;;;17.27;;
16270;SDS011;8243;49.048;8.396;2023-02-11T05:52:49;21.87;;;16.13;;
16270;SDS011;8243;49.048;8.396;2023-02-11T05:55:15;22.57;;;16.63;;
16270;SDS011;8243;49.048;8.396;2023-02-11T05:57:40;24.50;;;16.93;;
16270;SDS011;8243;49.048;8.396;2023-02-11T06:00:06;25.23;;;17.07;;
16270;SDS011;8243;49.048;8.396;2023-02-11T06:02:32;25.20;;;17.27;;
16270;SDS011;8243;49.048;8.396;2023-02-11T06:04:58;25.50;;;18.20;;
16270;SDS011;8243;49.048;8.396;2023-02-11T06:07:24;26.43;;;17.83;;
16270;SDS011;8243;49.048;8.396;2023-02-11T06:09:49;24.73;;;17.90;;
16270;SDS011;8243;49.048;8.396;2023-02-11T06:12:15;27.43;;;18.17;;
16270;SDS011;8243;49.048;8.396;2023-02-11T06:14:41;27.80;;;18.13;;
16270;SDS011;8243;49.048;8.396;2023-02-11T06:17:06;25.00;;;18.77;;
16270;SDS011;8243;49.048;8.396;2023-02-11T06:19:32;28.40;;;18.70;;
16270;SDS011;8243;49.048;8.396;2023-02-11T06:21:58;26.17;;;18.17;;
16270;SDS011;8243;49.048;8.396;2023-02-11T06:24:23;27.33;;;19.23;;
16270;SDS011;8243;49.048;8.396;2023-02-11T06:26:49;27.87;;;19.37;;
16270;SDS011;8243;49.048;8.396;2023-02-11T06:29:15;28.00;;;19.03;;
16270;SDS011;8243;49.048;8.396;2023-02-11T06:31:40;28.77;;;19.53;;
16270;SDS011;8243;49.048;8.396;2023-02-11T06:34:06;26.50;;;19.37;;
16270;SDS011;8243;49.048;8.396;2023-02-11T06:36:33;29.70;;;20.50;;
16270;SDS011;8243;49.048;8.396;2023-02-11T06:38:59;30.00;;;21.13;;
16270;SDS011;8243;49.048;8.396;2023-02-11T06:41:24;27.17;;;20.40;;
16270;SDS011;8243;49.048;8.396;2023-02-11T06:43:51;28.33;;;20.83;;
16270;SDS011;8243;49.048;8.396;2023-02-11T06:46:17;29.40;;;21.50;;
16270;SDS011;8243;49.048;8.396;2023-02-11T06:48:42;30.03;;;21.77;;
16270;SDS011;8243;49.048;8.396;2023-02-11T06:51:08;29.33;;;21.20;;
16270;SDS011;8243;49.048;8.396;2023-02-11T06:53:36;31.93;;;22.70;;
16270;SDS011;8243;49.048;8.396;2023-02-11T06:56:04;29.97;;;21.93;;
16270;SDS011;8243;49.048;8.396;2023-02-11T06:58:31;30.87;;;22.30;;
16270;SDS011;8243;49.048;8.396;2023-02-11T07:00:58;30.33;;;22.27;;
16270;SDS011;8243;49.048;8.396;2023-02-11T07:03:23;32.83;;;24.40;;
16270;SDS011;8243;49.048;8.396;2023-02-11T07:05:49;34.90;;;24.20;;
16270;SDS011;8243;49.048;8.396;2023-02-11T07:08:15;32.67;;;23.40;;
16270;SDS011;8243;49.048;8.396;2023-02-11T07:10:41;30.20;;;22.07;;
16270;SDS011;8243;49.048;8.396;2023-02-11T07:13:06;29.60;;;20.80;;
16270;SDS011;8243;49.048;8.396;2023-02-11T07:15:32;31.90;;;23.50;;
16270;SDS011;8243;49.048;8.396;2023-02-11T07:17:58;32.17;;;23.23;;
16270;SDS011;8243;49.048;8.396;2023-02-11T07:20:24;31.27;;;22.33;;
16270;SDS011;8243;49.048;8.396;2023-02-11T07:22:50;34.43;;;23.53;;
16270;SDS011;8243;49.048;8.396;2023-02-11T07:25:15;32.13;;;22.50;;
16270;SDS011;8243;49.048;8.396;2023-02-11T07:27:41;36.80;;;24.73;;
16270;SDS011;8243;49.048;8.396;2023-02-11T07:30:06;31.47;;;22.87;;
16270;SDS011;8243;49.048;8.396;2023-02-11T07:32:33;30.53;;;22.23;;
16270;SDS011;8243;49.048;8.396;2023-02-11T07:34:58;30.87;;;22.17;;
16270;SDS011;8243;49.048;8.396;2023-02-11T07:37:24;32.93;;;22.67;;
16270;SDS011;8243;49.048;8.396;2023-02-11T07:39:49;30.70;;;22.27;;
16270;SDS011;8243;49.048;8.396;2023-02-11T07:42:15;32.47;;;23.97;;
16270;SDS011;8243;49.048;8.396;2023-02-11T07:44:40;31.03;;;22.63;;
16270;SDS011;8243;49.048;8.396;2023-02-11T07:47:06;31.10;;;23.20;;
16270;SDS011;8243;49.048;8.396;2023-02-11T07:49:31;33.27;;;23.03;;
16270;SDS011;8243;49.048;8.396;2023-02-11T07:51:57;32.17;;;22.70;;
16270;SDS011;8243;49.048;8.396;2023-02-11T07:54:22;30.63;;;21.63;;
16270;SDS011;8243;49.048;8.396;2023-02-11T07:56:48;31.60;;;22.90;;
16270;SDS011;8243;49.048;8.396;2023-02-11T07:59:13;34.90;;;23.97;;
16270;SDS011;8243;49.048;8.396;2023-02-11T08:01:39;35.47;;;25.13;;
16270;SDS011;8243;49.048;8.396;2023-02-11T08:04:04;32.17;;;23.07;;
16270;SDS011;8243;49.048;8.396;2023-02-11T08:06:31;33.07;;;23.77;;
16270;SDS011;8243;49.048;8.396;2023-02-11T08:09:01;35.33;;;23.97;;
16270;SDS011;8243;49.048;8.396;2023-02-11T08:11:28;30.07;;;22.83;;
16270;SDS011;8243;49.048;8.396;2023-02-11T08:13:54;33.03;;;23.27;;
16270;SDS011;8243;49.048;8.396;2023-02-11T08:16:24;32.93;;;23.00;;
16270;SDS011;8243;49.048;8.396;2023-02-11T08:18:51;32.90;;;23.10;;
16270;SDS011;8243;49.048;8.396;2023-02-11T08:21:18;33.17;;;22.57;;
16270;SDS011;8243;49.048;8.396;2023-02-11T08:23:44;33.53;;;22.77;;
16270;SDS011;8243;49.048;8.396;2023-02-11T08:26:11;32.07;;;23.20;;
16270;SDS011;8243;49.048;8.396;2023-02-11T08:28:40;29.97;;;22.20;;
16270;SDS011;8243;49.048;8.396;2023-02-11T08:31:07;29.90;;;22.07;;
16270;SDS011;8243;49.048;8.396;2023-02-11T08:33:34;30.70;;;21.57;;
16270;SDS011;8243;49.048;8.396;2023-02-11T08:36:00;32.17;;;22.20;;
16270;SDS011;8243;49.048;8.396;2023-02-11T08:38:31;31.73;;;22.23;;
16270;SDS011;8243;49.048;8.396;2023-02-11T08:40:58;32.43;;;23.03;;
16270;SDS011;8243;49.048;8.396;2023-02-11T08:43:24;31.37;;;21.40;;
16270;SDS011;8243;49.048;8.396;2023-02-11T08:45:49;28.40;;;20.57;;
16270;SDS011;8243;49.048;8.396;2023-02-11T08:48:15;29.57;;;21.57;;
16270;SDS011;8243;49.048;8.396;2023-02-11T08:50:41;30.30;;;22.17;;
16270;SDS011;8243;49.048;8.396;2023-02-11T08:53:06;29.13;;;21.93;;
16270;SDS011;8243;49.048;8.396;2023-02-11T08:55:32;25.67;;;20.17;;
16270;SDS011;8243;49.048;8.396;2023-02-11T08:57:58;31.93;;;22.70;;
16270;SDS011;8243;49.048;8.396;2023-02-11T09:00:23;28.83;;;21.20;;
16270;SDS011;8243;49.048;8.396;2023-02-11T09:02:49;29.93;;;22.10;;
16270;SDS011;8243;49.048;8.396;2023-02-11T09:05:14;28.80;;;21.23;;
16270;SDS011;8243;49.048;8.396;2023-02-11T09:07:40;32.50;;;22.57;;
16270;SDS011;8243;49.048;8.396;2023-02-11T09:10:05;27.83;;;20.93;;
16270;SDS011;8243;49.048;8.396;2023-02-11T09:12:31;26.07;;;20.87;;
16270;SDS011;8243;49.048;8.396;2023-02-11T09:14:57;28.27;;;20.73;;
16270;SDS011;8243;49.048;8.396;2023-02-11T09:17:23;28.97;;;21.10;;
16270;SDS011;8243;49.048;8.396;2023-02-11T09:19:48;27.77;;;21.40;;
16270;SDS011;8243;49.048;8.396;2023-02-11T09:22:14;27.33;;;19.83;;
16270;SDS011;8243;49.048;8.396;2023-02-11T09:24:39;26.87;;;20.50;;
16270;SDS011;8243;49.048;8.396;2023-02-11T09:27:05;28.23;;;21.40;;
16270;SDS011;8243;49.048;8.396;2023-02-11T09:29:30;33.70;;;22.90;;
16270;SDS011;8243;49.048;8.396;2023-02-11T09:31:56;25.80;;;20.83;;
16270;SDS011;8243;49.048;8.396;2023-02-11T09:34:21;27.37;;;21.60;;
16270;SDS011;8243;49.048;8.396;2023-02-11T09:36:47;27.67;;;20.23;;
16270;SDS011;8243;49.048;8.396;2023-02-11T09:39:15;28.03;;;20.67;;
16270;SDS011;8243;49.048;8.396;2023-02-11T09:44:20;28.80;;;21.20;;
16270;SDS011;8243;49.048;8.396;2023-02-11T09:47:34;29.93;;;21.67;;
16270;SDS011;8243;49.048;8.396;2023-02-11T09:49:41;29.47;;;22.50;;
16270;SDS011;8243;49.048;8.396;2023-02-11T09:52:13;27.73;;;21.57;;
16270;SDS011;8243;49.048;8.396;2023-02-11T09:54:55;25.50;;;19.40;;
16270;SDS011;8243;49.048;8.396;2023-02-11T09:57:26;23.10;;;19.13;;
16270;SDS011;8243;49.048;8.396;2023-02-11T09:59:58;27.53;;;19.93;;
16270;SDS011;8243;49.048;8.396;2023-02-11T10:07:33;24.30;;;18.83;;
16270;SDS011;8243;49.048;8.396;2023-02-11T10:10:11;22.63;;;18.23;;
16270;SDS011;8243;49.048;8.396;2023-02-11T10:15:58;25.27;;;19.33;;
16270;SDS011;8243;49.048;8.396;2023-02-11T10:18:44;27.40;;;18.27;;
16270;SDS011;8243;49.048;8.396;2023-02-11T10:24:14;24.37;;;18.23;;
16270;SDS011;8243;49.048;8.396;2023-02-11T10:26:41;23.80;;;18.83;;
16270;SDS011;8243;49.048;8.396;2023-02-11T10:31:58;21.33;;;17.20;;
16270;SDS011;8243;49.048;8.396;2023-02-11T10:34:27;22.90;;;17.07;;
16270;SDS011;8243;49.048;8.396;2023-02-11T10:36:52;23.10;;;17.20;;
16270;SDS011;8243;49.048;8.396;2023-02-11T10:39:19;21.23;;;16.93;;
16270;SDS011;8243;49.048;8.396;2023-02-11T10:41:53;21.43;;;17.20;;
16270;SDS011;8243;49.048;8.396;2023-02-11T10:44:26;24.73;;;16.73;;
16270;SDS011;8243;49.048;8.396;2023-02-11T10:47:16;21.50;;;16.87;;
16270;SDS011;8243;49.048;8.396;2023-02-11T10:49:45;20.40;;;14.80;;
16270;SDS011;8243;49.048;8.396;2023-02-11T10:52:24;18.50;;;14.97;;
16270;SDS011;8243;49.048;8.396;2023-02-11T10:57:55;19.27;;;13.67;;
16270;SDS011;8243;49.048;8.396;2023-02-11T11:02:55;19.60;;;15.07;;
16270;SDS011;8243;49.048;8.396;2023-02-11T11:05:26;19.03;;;13.90;;
16270;SDS011;8243;49.048;8.396;2023-02-11T11:08:04;18.17;;;14.37;;
16270;SDS011;8243;49.048;8.396;2023-02-11T11:10:39;19.43;;;13.70;;
16270;SDS011;8243;49.048;8.396;2023-02-11T11:16:13;18.00;;;13.17;;
16270;SDS011;8243;49.048;8.396;2023-02-11T11:18:42;20.17;;;13.70;;
16270;SDS011;8243;49.048;8.396;2023-02-11T11:21:22;17.03;;;13.80;;
16270;SDS011;8243;49.048;8.396;2023-02-11T11:24:00;17.43;;;13.67;;
16270;SDS011;8243;49.048;8.396;2023-02-11T11:27:15;17.33;;;13.50;;
16270;SDS011;8243;49.048;8.396;2023-02-11T11:29:19;19.00;;;14.40;;
16270;SDS011;8243;49.048;8.396;2023-02-11T11:34:50;20.10;;;15.73;;
16270;SDS011;8243;49.048;8.396;2023-02-11T11:37:36;20.23;;;13.80;;
16270;SDS011;8243;49.048;8.396;2023-02-11T11:42:45;19.93;;;14.50;;
16270;SDS011;8243;49.048;8.396;2023-02-11T11:45:27;17.57;;;14.03;;
16270;SDS011;8243;49.048;8.396;2023-02-11T11:47:53;18.97;;;14.17;;
16270;SDS011;8243;49.048;8.396;2023-02-11T11:50:32;17.77;;;13.73;;
16270;SDS011;8243;49.048;8.396;2023-02-11T11:53:09;18.53;;;14.43;;
16270;SDS011;8243;49.048;8.396;2023-02-11T11:55:38;20.47;;;15.77;;
16270;SDS011;8243;49.048;8.396;2023-02-11T11:58:14;19.40;;;14.40;;
16270;SDS011;8243;49.048;8.396;2023-02-11T12:03:33;17.90;;;14.77;;
16270;SDS011;8243;49.048;8.396;2023-02-11T12:06:23;18.93;;;14.70;;
16270;SDS011;8243;49.048;8.396;2023-02-11T12:09:30;18.50;;;14.40;;
16270;SDS011;8243;49.048;8.396;2023-02-11T12:18:00;19.33;;;14.93;;
16270;SDS011;8243;49.048;8.396;2023-02-11T12:25:50;20.80;;;15.47;;
16270;SDS011;8243;49.048;8.396;2023-02-11T12:31:10;19.80;;;16.00;;
16270;SDS011;8243;49.048;8.396;2023-02-11T12:50:05;22.30;;;15.50;;
16270;SDS011;8243;49.048;8.396;2023-02-11T12:52:58;18.23;;;14.60;;
16270;SDS011;8243;49.048;8.396;2023-02-11T12:55:27;18.67;;;14.20;;
16270;SDS011;8243;49.048;8.396;2023-02-11T12:58:01;18.27;;;14.50;;
16270;SDS011;8243;49.048;8.396;2023-02-11T13:00:39;16.37;;;13.60;;
16270;SDS011;8243;49.048;8.396;2023-02-11T13:03:24;18.40;;;13.87;;
16270;SDS011;8243;49.048;8.396;2023-02-11T13:05:52;20.20;;;16.00;;
16270;SDS011;8243;49.048;8.396;2023-02-11T13:08:26;19.87;;;14.67;;
16270;SDS011;8243;49.048;8.396;2023-02-11T13:11:02;19.37;;;15.80;;
16270;SDS011;8243;49.048;8.396;2023-02-11T13:16:39;18.20;;;14.37;;
16270;SDS011;8243;49.048;8.396;2023-02-11T13:21:53;19.03;;;14.77;;
16270;SDS011;8243;49.048;8.396;2023-02-11T13:24:42;17.57;;;13.90;;
16270;SDS011;8243;49.048;8.396;2023-02-11T13:30:00;17.30;;;13.97;;
16270;SDS011;8243;49.048;8.396;2023-02-11T13:35:27;16.73;;;14.30;;
16270;SDS011;8243;49.048;8.396;2023-02-11T13:38:19;16.97;;;14.20;;
16270;SDS011;8243;49.048;8.396;2023-02-11T13:40:57;17.67;;;14.70;;
16270;SDS011;8243;49.048;8.396;2023-02-11T13:43:37;18.90;;;15.03;;
16270;SDS011;8243;49.048;8.396;2023-02-11T13:46:04;18.50;;;15.13;;
16270;SDS011;8243;49.048;8.396;2023-02-11T13:48:32;18.37;;;15.03;;
16270;SDS011;8243;49.048;8.396;2023-02-11T13:51:11;21.80;;;15.03;;
16270;SDS011;8243;49.048;8.396;2023-02-11T13:53:49;17.00;;;14.63;;
16270;SDS011;8243;49.048;8.396;2023-02-11T13:59:01;19.40;;;15.00;;
16270;SDS011;8243;49.048;8.396;2023-02-11T14:01:40;17.53;;;15.63;;
16270;SDS011;8243;49.048;8.396;2023-02-11T14:04:30;21.03;;;15.20;;
16270;SDS011;8243;49.048;8.396;2023-02-11T14:07:25;18.40;;;15.00;;
16270;SDS011;8243;49.048;8.396;2023-02-11T14:13:05;20.23;;;15.60;;
16270;SDS011;8243;49.048;8.396;2023-02-11T14:16:02;17.57;;;14.40;;
16270;SDS011;8243;49.048;8.396;2023-02-11T14:23:43;17.97;;;16.07;;
16270;SDS011;8243;49.048;8.396;2023-02-11T14:28:48;20.53;;;16.83;;
16270;SDS011;8243;49.048;8.396;2023-02-11T14:31:28;20.83;;;16.57;;
16270;SDS011;8243;49.048;8.396;2023-02-11T14:34:35;18.03;;;14.80;;
16270;SDS011;8243;49.048;8.396;2023-02-11T14:37:58;21.00;;;15.17;;
16270;SDS011;8243;49.048;8.396;2023-02-11T14:40:23;19.97;;;15.43;;
16270;SDS011;8243;49.048;8.396;2023-02-11T14:43:34;17.77;;;15.03;;
16270;SDS011;8243;49.048;8.396;2023-02-11T14:45:53;19.57;;;15.47;;
16270;SDS011;8243;49.048;8.396;2023-02-11T14:48:21;19.97;;;15.80;;
16270;SDS011;8243;49.048;8.396;2023-02-11T14:53:31;18.33;;;14.63;;
16270;SDS011;8243;49.048;8.396;2023-02-11T14:55:58;18.40;;;15.23;;
16270;SDS011;8243;49.048;8.396;2023-02-11T14:58:25;20.80;;;16.67;;
16270;SDS011;8243;49.048;8.396;2023-02-11T15:00:59;20.93;;;15.53;;
16270;SDS011;8243;49.048;8.396;2023-02-11T15:03:37;20.80;;;16.30;;
16270;SDS011;8243;49.048;8.396;2023-02-11T15:09:00;20.10;;;15.60;;
16270;SDS011;8243;49.048;8.396;2023-02-11T15:11:38;21.10;;;16.53;;
16270;SDS011;8243;49.048;8.396;2023-02-11T15:14:15;20.37;;;16.33;;
16270;SDS011;8243;49.048;8.396;2023-02-11T15:16:47;21.60;;;15.17;;
16270;SDS011;8243;49.048;8.396;2023-02-11T15:19:17;20.07;;;16.43;;
16270;SDS011;8243;49.048;8.396;2023-02-11T15:21:46;22.33;;;17.37;;
16270;SDS011;8243;49.048;8.396;2023-02-11T15:24:21;21.77;;;16.53;;
16270;SDS011;8243;49.048;8.396;2023-02-11T15:26:57;20.83;;;16.83;;
16270;SDS011;8243;49.048;8.396;2023-02-11T15:29:43;20.30;;;16.30;;
16270;SDS011;8243;49.048;8.396;2023-02-11T15:32:15;18.77;;;15.43;;
16270;SDS011;8243;49.048;8.396;2023-02-11T15:34:49;19.60;;;15.97;;
16270;SDS011;8243;49.048;8.396;2023-02-11T15:37:20;18.93;;;15.50;;
16270;SDS011;8243;49.048;8.396;2023-02-11T15:39:51;19.43;;;16.30;;
16270;SDS011;8243;49.048;8.396;2023-02-11T15:42:22;18.07;;;16.07;;
16270;SDS011;8243;49.048;8.396;2023-02-11T15:45:09;21.23;;;15.80;;
16270;SDS011;8243;49.048;8.396;2023-02-11T15:47:40;19.63;;;16.47;;
16270;SDS011;8243;49.048;8.396;2023-02-11T15:50:22;21.23;;;16.93;;
16270;SDS011;8243;49.048;8.396;2023-02-11T15:53:00;26.37;;;19.83;;
16270;SDS011;8243;49.048;8.396;2023-02-11T15:55:30;24.03;;;17.87;;
16270;SDS011;8243;49.048;8.396;2023-02-11T15:57:57;27.77;;;20.20;;
16270;SDS011;8243;49.048;8.396;2023-02-11T16:00:48;24.00;;;18.27;;
16270;SDS011;8243;49.048;8.396;2023-02-11T16:03:19;19.17;;;16.30;;
16270;SDS011;8243;49.048;8.396;2023-02-11T16:05:46;22.17;;;17.97;;
16270;SDS011;8243;49.048;8.396;2023-02-11T16:10:59;19.10;;;16.57;;
16270;SDS011;8243;49.048;8.396;2023-02-11T16:13:42;21.90;;;17.77;;
16270;SDS011;8243;49.048;8.396;2023-02-11T16:16:43;20.13;;;17.50;;
16270;SDS011;8243;49.048;8.396;2023-02-11T16:19:02;20.27;;;17.37;;
16270;SDS011;8243;49.048;8.396;2023-02-11T16:21:31;19.83;;;17.47;;
16270;SDS011;8243;49.048;8.396;2023-02-11T16:24:05;20.20;;;16.97;;
16270;SDS011;8243;49.048;8.396;2023-02-11T16:26:35;22.73;;;18.17;;
16270;SDS011;8243;49.048;8.396;2023-02-11T16:31:37;21.97;;;17.70;;
16270;SDS011;8243;49.048;8.396;2023-02-11T16:34:26;23.40;;;17.67;;
16270;SDS011;8243;49.048;8.396;2023-02-11T16:36:52;21.77;;;18.07;;
16270;SDS011;8243;49.048;8.396;2023-02-11T16:39:18;23.03;;;17.10;;
16270;SDS011;8243;49.048;8.396;2023-02-11T16:41:47;23.27;;;16.77;;
16270;SDS011;8243;49.048;8.396;2023-02-11T16:44:16;20.17;;;16.70;;
16270;SDS011;8243;49.048;8.396;2023-02-11T16:46:42;22.80;;;18.20;;
16270;SDS011;8243;49.048;8.396;2023-02-11T16:51:50;19.73;;;17.23;;
16270;SDS011;8243;49.048;8.396;2023-02-11T16:54:17;18.13;;;15.10;;
16270;SDS011;8243;49.048;8.396;2023-02-11T16:56:44;19.40;;;15.53;;
16270;SDS011;8243;49.048;8.396;2023-02-11T16:59:10;17.60;;;14.33;;
16270;SDS011;8243;49.048;8.396;2023-02-11T17:01:36;15.60;;;13.70;;